sensor_id;sensor_type;location;lat;lon;timestamp;temperature;humidity
75719;DHT22;64340;48.534;-3.036;2022-10-16T00:01:26;19.20;71.70
75719;DHT22;64340;48.534;-3.036;2022-10-16T00:03:52;19.20;71.70
75719;DHT22;64340;48.534;-3.036;2022-10-16T00:06:20;19.20;71.60
75719;DHT22;64340;48.534;-3.036;2022-10-16T00:08:46;19.20;71.60
75719;DHT22;64340;48.534;-3.036;2022-10-16T00:11:15;19.20;71.60
75719;DHT22;64340;48.534;-3.036;2022-10-16T00:13:42;19.20;71.60
75719;DHT22;64340;48.534;-3.036;2022-10-16T00:16:09;19.20;71.50
75719;DHT22;64340;48.534;-3.036;2022-10-16T00:18:36;19.20;71.50
75719;DHT22;64340;48.534;-3.036;2022-10-16T00:21:11;19.20;71.50
75719;DHT22;64340;48.534;-3.036;2022-10-16T00:23:38;19.10;71.50
75719;DHT22;64340;48.534;-3.036;2022-10-16T00:26:07;19.10;71.50
75719;DHT22;64340;48.534;-3.036;2022-10-16T00:28:33;19.10;71.50
75719;DHT22;64340;48.534;-3.036;2022-10-16T00:31:03;19.10;71.50
75719;DHT22;64340;48.534;-3.036;2022-10-16T00:33:29;19.10;71.50
75719;DHT22;64340;48.534;-3.036;2022-10-16T00:35:58;19.10;71.50
75719;DHT22;64340;48.534;-3.036;2022-10-16T00:38:24;19.10;71.50
75719;DHT22;64340;48.534;-3.036;2022-10-16T00:40:50;19.10;71.50
75719;DHT22;64340;48.534;-3.036;2022-10-16T00:43:39;19.10;71.50
75719;DHT22;64340;48.534;-3.036;2022-10-16T00:48:43;19.10;71.50
75719;DHT22;64340;48.534;-3.036;2022-10-16T00:51:10;19.10;71.50
75719;DHT22;64340;48.534;-3.036;2022-10-16T00:53:36;19.10;71.50
75719;DHT22;64340;48.534;-3.036;2022-10-16T00:56:02;19.10;71.40
75719;DHT22;64340;48.534;-3.036;2022-10-16T00:58:28;19.10;71.50
75719;DHT22;64340;48.534;-3.036;2022-10-16T01:00:54;19.10;71.50
75719;DHT22;64340;48.534;-3.036;2022-10-16T01:03:32;19.10;71.40
75719;DHT22;64340;48.534;-3.036;2022-10-16T01:06:09;19.10;71.40
75719;DHT22;64340;48.534;-3.036;2022-10-16T01:09:01;19.00;71.40
75719;DHT22;64340;48.534;-3.036;2022-10-16T01:11:57;19.00;71.40
75719;DHT22;64340;48.534;-3.036;2022-10-16T01:17:34;19.10;72.10
75719;DHT22;64340;48.534;-3.036;2022-10-16T01:20:11;19.00;72.30
75719;DHT22;64340;48.534;-3.036;2022-10-16T01:25:39;19.00;72.70
75719;DHT22;64340;48.534;-3.036;2022-10-16T01:28:13;19.00;72.60
75719;DHT22;64340;48.534;-3.036;2022-10-16T01:30:42;19.00;72.60
75719;DHT22;64340;48.534;-3.036;2022-10-16T01:33:22;19.00;72.80
75719;DHT22;64340;48.534;-3.036;2022-10-16T01:36:02;19.00;72.90
75719;DHT22;64340;48.534;-3.036;2022-10-16T01:38:35;19.00;72.90
75719;DHT22;64340;48.534;-3.036;2022-10-16T01:41:14;19.00;72.90
75719;DHT22;64340;48.534;-3.036;2022-10-16T01:46:28;19.00;72.90
75719;DHT22;64340;48.534;-3.036;2022-10-16T01:48:56;19.00;72.90
75719;DHT22;64340;48.534;-3.036;2022-10-16T01:51:23;19.00;72.90
75719;DHT22;64340;48.534;-3.036;2022-10-16T01:53:53;19.00;73.00
75719;DHT22;64340;48.534;-3.036;2022-10-16T01:56:21;19.00;73.00
75719;DHT22;64340;48.534;-3.036;2022-10-16T01:58:57;19.00;72.90
75719;DHT22;64340;48.534;-3.036;2022-10-16T02:01:26;19.00;72.80
75719;DHT22;64340;48.534;-3.036;2022-10-16T02:03:57;19.00;72.90
75719;DHT22;64340;48.534;-3.036;2022-10-16T02:06:24;18.90;73.00
75719;DHT22;64340;48.534;-3.036;2022-10-16T02:08:51;18.90;73.00
75719;DHT22;64340;48.534;-3.036;2022-10-16T02:11:17;19.00;72.90
75719;DHT22;64340;48.534;-3.036;2022-10-16T02:13:50;19.00;73.00
75719;DHT22;64340;48.534;-3.036;2022-10-16T02:16:17;19.00;73.00
75719;DHT22;64340;48.534;-3.036;2022-10-16T02:18:43;18.90;73.10
75719;DHT22;64340;48.534;-3.036;2022-10-16T02:21:29;18.90;73.00
75719;DHT22;64340;48.534;-3.036;2022-10-16T02:24:18;18.90;73.10
75719;DHT22;64340;48.534;-3.036;2022-10-16T02:27:12;18.90;73.00
75719;DHT22;64340;48.534;-3.036;2022-10-16T02:29:42;18.90;73.00
75719;DHT22;64340;48.534;-3.036;2022-10-16T02:32:12;18.90;73.20
75719;DHT22;64340;48.534;-3.036;2022-10-16T02:34:41;18.90;73.00
75719;DHT22;64340;48.534;-3.036;2022-10-16T02:37:07;18.90;73.20
75719;DHT22;64340;48.534;-3.036;2022-10-16T02:39:34;18.90;73.10
75719;DHT22;64340;48.534;-3.036;2022-10-16T02:42:00;18.90;73.10
75719;DHT22;64340;48.534;-3.036;2022-10-16T02:44:26;18.90;73.00
75719;DHT22;64340;48.534;-3.036;2022-10-16T02:46:52;18.90;72.80
75719;DHT22;64340;48.534;-3.036;2022-10-16T02:49:18;18.90;72.60
75719;DHT22;64340;48.534;-3.036;2022-10-16T02:51:44;18.90;72.80
75719;DHT22;64340;48.534;-3.036;2022-10-16T02:54:09;18.90;72.90
75719;DHT22;64340;48.534;-3.036;2022-10-16T02:56:36;18.90;73.00
75719;DHT22;64340;48.534;-3.036;2022-10-16T02:59:01;18.90;73.00
75719;DHT22;64340;48.534;-3.036;2022-10-16T03:01:27;18.90;73.00
75719;DHT22;64340;48.534;-3.036;2022-10-16T03:03:53;18.90;73.20
75719;DHT22;64340;48.534;-3.036;2022-10-16T03:06:19;18.90;73.20
75719;DHT22;64340;48.534;-3.036;2022-10-16T03:08:45;18.90;73.20
75719;DHT22;64340;48.534;-3.036;2022-10-16T03:11:10;18.90;73.20
75719;DHT22;64340;48.534;-3.036;2022-10-16T03:13:36;18.90;73.10
75719;DHT22;64340;48.534;-3.036;2022-10-16T03:16:02;18.80;73.10
75719;DHT22;64340;48.534;-3.036;2022-10-16T03:18:28;18.80;73.20
75719;DHT22;64340;48.534;-3.036;2022-10-16T03:20:53;18.80;73.10
75719;DHT22;64340;48.534;-3.036;2022-10-16T03:23:19;18.80;73.20
75719;DHT22;64340;48.534;-3.036;2022-10-16T03:25:45;18.80;73.20
75719;DHT22;64340;48.534;-3.036;2022-10-16T03:28:11;18.80;73.20
75719;DHT22;64340;48.534;-3.036;2022-10-16T03:30:37;18.80;73.10
75719;DHT22;64340;48.534;-3.036;2022-10-16T03:33:05;18.80;73.00
75719;DHT22;64340;48.534;-3.036;2022-10-16T03:35:31;18.80;73.20
75719;DHT22;64340;48.534;-3.036;2022-10-16T03:37:57;18.80;73.30
75719;DHT22;64340;48.534;-3.036;2022-10-16T03:40:23;18.80;73.20
75719;DHT22;64340;48.534;-3.036;2022-10-16T03:42:49;18.80;73.20
75719;DHT22;64340;48.534;-3.036;2022-10-16T03:45:14;18.80;73.20
75719;DHT22;64340;48.534;-3.036;2022-10-16T03:47:40;18.80;73.20
75719;DHT22;64340;48.534;-3.036;2022-10-16T03:50:07;18.80;73.20
75719;DHT22;64340;48.534;-3.036;2022-10-16T03:52:33;18.80;73.20
75719;DHT22;64340;48.534;-3.036;2022-10-16T03:54:59;18.80;73.20
75719;DHT22;64340;48.534;-3.036;2022-10-16T03:57:24;18.80;73.00
75719;DHT22;64340;48.534;-3.036;2022-10-16T03:59:50;18.80;73.10
75719;DHT22;64340;48.534;-3.036;2022-10-16T04:02:16;18.80;73.10
75719;DHT22;64340;48.534;-3.036;2022-10-16T04:04:42;18.80;73.10
75719;DHT22;64340;48.534;-3.036;2022-10-16T04:07:08;18.80;73.10
75719;DHT22;64340;48.534;-3.036;2022-10-16T04:09:34;18.80;73.00
75719;DHT22;64340;48.534;-3.036;2022-10-16T04:11:59;18.70;73.00
75719;DHT22;64340;48.534;-3.036;2022-10-16T04:14:25;18.70;73.00
75719;DHT22;64340;48.534;-3.036;2022-10-16T04:16:51;18.70;73.00
75719;DHT22;64340;48.534;-3.036;2022-10-16T04:19:17;18.70;73.00
75719;DHT22;64340;48.534;-3.036;2022-10-16T04:21:42;18.70;72.90
75719;DHT22;64340;48.534;-3.036;2022-10-16T04:24:08;18.70;72.90
75719;DHT22;64340;48.534;-3.036;2022-10-16T04:26:34;18.70;72.80
75719;DHT22;64340;48.534;-3.036;2022-10-16T04:29:00;18.70;72.80
75719;DHT22;64340;48.534;-3.036;2022-10-16T04:31:25;18.70;72.80
75719;DHT22;64340;48.534;-3.036;2022-10-16T04:33:51;18.70;72.80
75719;DHT22;64340;48.534;-3.036;2022-10-16T04:36:17;18.70;72.80
75719;DHT22;64340;48.534;-3.036;2022-10-16T04:38:42;18.70;72.80
75719;DHT22;64340;48.534;-3.036;2022-10-16T04:41:08;18.70;72.90
75719;DHT22;64340;48.534;-3.036;2022-10-16T04:43:34;18.70;72.90
75719;DHT22;64340;48.534;-3.036;2022-10-16T04:46:00;18.70;72.80
75719;DHT22;64340;48.534;-3.036;2022-10-16T04:48:27;18.70;72.90
75719;DHT22;64340;48.534;-3.036;2022-10-16T04:50:53;18.70;72.90
75719;DHT22;64340;48.534;-3.036;2022-10-16T04:53:18;18.60;72.90
75719;DHT22;64340;48.534;-3.036;2022-10-16T04:55:44;18.60;72.90
75719;DHT22;64340;48.534;-3.036;2022-10-16T04:58:10;18.60;72.90
75719;DHT22;64340;48.534;-3.036;2022-10-16T05:00:36;18.60;72.90
75719;DHT22;64340;48.534;-3.036;2022-10-16T05:03:04;18.60;72.80
75719;DHT22;64340;48.534;-3.036;2022-10-16T05:05:33;18.60;72.90
75719;DHT22;64340;48.534;-3.036;2022-10-16T05:07:59;18.60;72.90
75719;DHT22;64340;48.534;-3.036;2022-10-16T05:10:25;18.60;72.90
75719;DHT22;64340;48.534;-3.036;2022-10-16T05:12:50;18.60;72.80
75719;DHT22;64340;48.534;-3.036;2022-10-16T05:15:17;18.60;72.80
75719;DHT22;64340;48.534;-3.036;2022-10-16T05:17:44;18.60;72.80
75719;DHT22;64340;48.534;-3.036;2022-10-16T05:20:10;18.60;73.00
75719;DHT22;64340;48.534;-3.036;2022-10-16T05:22:36;18.60;72.90
75719;DHT22;64340;48.534;-3.036;2022-10-16T05:25:01;18.60;72.90
75719;DHT22;64340;48.534;-3.036;2022-10-16T05:27:28;18.60;72.90
75719;DHT22;64340;48.534;-3.036;2022-10-16T05:29:53;18.60;72.80
75719;DHT22;64340;48.534;-3.036;2022-10-16T05:32:19;18.60;72.80
75719;DHT22;64340;48.534;-3.036;2022-10-16T05:34:45;18.60;72.90
75719;DHT22;64340;48.534;-3.036;2022-10-16T05:37:11;18.60;72.90
75719;DHT22;64340;48.534;-3.036;2022-10-16T05:39:38;18.60;72.90
75719;DHT22;64340;48.534;-3.036;2022-10-16T05:42:05;18.60;72.90
75719;DHT22;64340;48.534;-3.036;2022-10-16T05:44:31;18.60;72.90
75719;DHT22;64340;48.534;-3.036;2022-10-16T05:46:57;18.50;72.80
75719;DHT22;64340;48.534;-3.036;2022-10-16T05:49:22;18.50;72.80
75719;DHT22;64340;48.534;-3.036;2022-10-16T05:51:48;18.50;72.80
75719;DHT22;64340;48.534;-3.036;2022-10-16T05:54:14;18.50;72.70
75719;DHT22;64340;48.534;-3.036;2022-10-16T05:56:40;18.50;72.80
75719;DHT22;64340;48.534;-3.036;2022-10-16T05:59:06;18.50;72.70
75719;DHT22;64340;48.534;-3.036;2022-10-16T06:01:32;18.50;72.70
75719;DHT22;64340;48.534;-3.036;2022-10-16T06:03:58;18.50;72.40
75719;DHT22;64340;48.534;-3.036;2022-10-16T06:06:26;18.50;72.50
75719;DHT22;64340;48.534;-3.036;2022-10-16T06:08:53;18.50;72.60
75719;DHT22;64340;48.534;-3.036;2022-10-16T06:11:22;18.50;72.50
75719;DHT22;64340;48.534;-3.036;2022-10-16T06:13:52;18.50;72.40
75719;DHT22;64340;48.534;-3.036;2022-10-16T06:16:18;18.50;72.20
75719;DHT22;64340;48.534;-3.036;2022-10-16T06:18:45;18.50;72.20
75719;DHT22;64340;48.534;-3.036;2022-10-16T06:21:16;18.50;72.20
75719;DHT22;64340;48.534;-3.036;2022-10-16T06:23:42;18.50;72.10
75719;DHT22;64340;48.534;-3.036;2022-10-16T06:26:12;18.50;72.00
75719;DHT22;64340;48.534;-3.036;2022-10-16T06:28:39;18.40;71.90
75719;DHT22;64340;48.534;-3.036;2022-10-16T06:31:06;18.50;71.60
75719;DHT22;64340;48.534;-3.036;2022-10-16T06:33:32;18.50;71.40
75719;DHT22;64340;48.534;-3.036;2022-10-16T06:36:10;18.40;71.30
75719;DHT22;64340;48.534;-3.036;2022-10-16T06:38:37;18.40;71.50
75719;DHT22;64340;48.534;-3.036;2022-10-16T06:41:04;18.40;71.50
75719;DHT22;64340;48.534;-3.036;2022-10-16T06:43:31;18.40;71.50
75719;DHT22;64340;48.534;-3.036;2022-10-16T06:45:59;18.40;71.60
75719;DHT22;64340;48.534;-3.036;2022-10-16T06:48:25;18.40;71.80
75719;DHT22;64340;48.534;-3.036;2022-10-16T06:53:26;18.40;71.90
75719;DHT22;64340;48.534;-3.036;2022-10-16T06:55:52;18.40;72.00
75719;DHT22;64340;48.534;-3.036;2022-10-16T06:58:18;18.40;72.10
75719;DHT22;64340;48.534;-3.036;2022-10-16T07:00:44;18.40;72.10
75719;DHT22;64340;48.534;-3.036;2022-10-16T07:03:10;18.40;72.20
75719;DHT22;64340;48.534;-3.036;2022-10-16T07:05:43;18.40;72.10
75719;DHT22;64340;48.534;-3.036;2022-10-16T07:08:09;18.40;72.20
75719;DHT22;64340;48.534;-3.036;2022-10-16T07:10:35;18.40;72.20
75719;DHT22;64340;48.534;-3.036;2022-10-16T07:13:01;18.40;72.20
75719;DHT22;64340;48.534;-3.036;2022-10-16T07:15:27;18.40;72.20
75719;DHT22;64340;48.534;-3.036;2022-10-16T07:17:53;18.40;72.20
75719;DHT22;64340;48.534;-3.036;2022-10-16T07:20:19;18.40;72.20
75719;DHT22;64340;48.534;-3.036;2022-10-16T07:22:45;18.40;72.20
75719;DHT22;64340;48.534;-3.036;2022-10-16T07:25:11;18.40;72.20
75719;DHT22;64340;48.534;-3.036;2022-10-16T07:27:39;18.40;72.20
75719;DHT22;64340;48.534;-3.036;2022-10-16T07:30:07;18.40;72.20
75719;DHT22;64340;48.534;-3.036;2022-10-16T07:32:33;18.40;72.20
75719;DHT22;64340;48.534;-3.036;2022-10-16T07:34:58;18.40;72.30
75719;DHT22;64340;48.534;-3.036;2022-10-16T07:37:24;18.40;72.20
75719;DHT22;64340;48.534;-3.036;2022-10-16T07:39:50;18.40;72.20
75719;DHT22;64340;48.534;-3.036;2022-10-16T07:42:15;18.40;72.20
75719;DHT22;64340;48.534;-3.036;2022-10-16T07:44:41;18.40;72.20
75719;DHT22;64340;48.534;-3.036;2022-10-16T07:47:07;18.40;72.20
75719;DHT22;64340;48.534;-3.036;2022-10-16T07:49:33;18.40;72.30
75719;DHT22;64340;48.534;-3.036;2022-10-16T07:51:59;18.40;72.30
75719;DHT22;64340;48.534;-3.036;2022-10-16T07:54:25;18.40;72.30
75719;DHT22;64340;48.534;-3.036;2022-10-16T07:56:51;18.40;72.40
75719;DHT22;64340;48.534;-3.036;2022-10-16T07:59:16;18.40;72.40
75719;DHT22;64340;48.534;-3.036;2022-10-16T08:01:44;18.40;72.50
75719;DHT22;64340;48.534;-3.036;2022-10-16T08:04:10;18.50;72.40
75719;DHT22;64340;48.534;-3.036;2022-10-16T08:06:38;18.50;72.20
75719;DHT22;64340;48.534;-3.036;2022-10-16T08:09:04;18.50;72.30
75719;DHT22;64340;48.534;-3.036;2022-10-16T08:11:31;18.50;72.20
75719;DHT22;64340;48.534;-3.036;2022-10-16T08:13:57;18.50;72.50
75719;DHT22;64340;48.534;-3.036;2022-10-16T08:16:24;18.50;72.80
75719;DHT22;64340;48.534;-3.036;2022-10-16T08:18:50;18.50;73.50
75719;DHT22;64340;48.534;-3.036;2022-10-16T08:21:21;18.60;73.30
75719;DHT22;64340;48.534;-3.036;2022-10-16T08:23:49;18.60;73.60
75719;DHT22;64340;48.534;-3.036;2022-10-16T08:26:15;18.60;73.40
75719;DHT22;64340;48.534;-3.036;2022-10-16T08:28:41;18.60;73.20
75719;DHT22;64340;48.534;-3.036;2022-10-16T08:31:14;18.60;73.00
75719;DHT22;64340;48.534;-3.036;2022-10-16T08:33:43;18.60;72.90
75719;DHT22;64340;48.534;-3.036;2022-10-16T08:36:10;18.70;72.70
75719;DHT22;64340;48.534;-3.036;2022-10-16T08:38:36;18.70;72.70
75719;DHT22;64340;48.534;-3.036;2022-10-16T08:47:16;18.70;72.50
75719;DHT22;64340;48.534;-3.036;2022-10-16T08:49:55;18.70;72.50
75719;DHT22;64340;48.534;-3.036;2022-10-16T08:52:29;18.70;72.50
75719;DHT22;64340;48.534;-3.036;2022-10-16T08:54:55;18.70;72.50
75719;DHT22;64340;48.534;-3.036;2022-10-16T08:57:24;18.70;72.50
75719;DHT22;64340;48.534;-3.036;2022-10-16T08:59:52;18.70;72.40
75719;DHT22;64340;48.534;-3.036;2022-10-16T09:02:32;18.70;72.30
75719;DHT22;64340;48.534;-3.036;2022-10-16T09:16:19;18.70;72.20
75719;DHT22;64340;48.534;-3.036;2022-10-16T09:19:05;18.80;72.10
75719;DHT22;64340;48.534;-3.036;2022-10-16T09:21:36;18.80;72.00
75719;DHT22;64340;48.534;-3.036;2022-10-16T09:24:15;18.80;72.00
75719;DHT22;64340;48.534;-3.036;2022-10-16T09:26:42;18.80;72.00
75719;DHT22;64340;48.534;-3.036;2022-10-16T09:29:15;18.70;72.10
75719;DHT22;64340;48.534;-3.036;2022-10-16T09:31:42;18.70;72.20
75719;DHT22;64340;48.534;-3.036;2022-10-16T09:34:29;18.70;72.30
75719;DHT22;64340;48.534;-3.036;2022-10-16T09:36:57;18.70;72.40
75719;DHT22;64340;48.534;-3.036;2022-10-16T09:39:24;18.70;72.60
75719;DHT22;64340;48.534;-3.036;2022-10-16T09:41:50;18.70;72.60
75719;DHT22;64340;48.534;-3.036;2022-10-16T09:44:30;18.70;72.70
75719;DHT22;64340;48.534;-3.036;2022-10-16T09:47:14;18.70;72.80
75719;DHT22;64340;48.534;-3.036;2022-10-16T09:49:51;18.60;73.00
75719;DHT22;64340;48.534;-3.036;2022-10-16T09:52:19;18.60;73.40
75719;DHT22;64340;48.534;-3.036;2022-10-16T09:54:59;18.60;73.50
75719;DHT22;64340;48.534;-3.036;2022-10-16T09:57:25;18.60;73.90
75719;DHT22;64340;48.534;-3.036;2022-10-16T09:59:54;18.60;73.50
75719;DHT22;64340;48.534;-3.036;2022-10-16T10:02:44;18.60;73.20
75719;DHT22;64340;48.534;-3.036;2022-10-16T10:05:23;18.60;73.60
75719;DHT22;64340;48.534;-3.036;2022-10-16T10:08:01;18.60;73.00
75719;DHT22;64340;48.534;-3.036;2022-10-16T10:10:42;18.60;73.90
75719;DHT22;64340;48.534;-3.036;2022-10-16T10:13:21;18.60;75.10
75719;DHT22;64340;48.534;-3.036;2022-10-16T10:15:48;18.50;75.00
75719;DHT22;64340;48.534;-3.036;2022-10-16T10:18:19;18.50;75.10
75719;DHT22;64340;48.534;-3.036;2022-10-16T10:20:57;18.50;74.10
75719;DHT22;64340;48.534;-3.036;2022-10-16T10:23:26;18.50;75.20
75719;DHT22;64340;48.534;-3.036;2022-10-16T10:26:18;18.50;74.70
75719;DHT22;64340;48.534;-3.036;2022-10-16T10:28:54;18.50;74.30
75719;DHT22;64340;48.534;-3.036;2022-10-16T10:31:43;18.60;74.50
75719;DHT22;64340;48.534;-3.036;2022-10-16T10:37:04;18.60;74.00
75719;DHT22;64340;48.534;-3.036;2022-10-16T10:39:41;18.60;74.10
75719;DHT22;64340;48.534;-3.036;2022-10-16T10:42:18;18.60;73.80
75719;DHT22;64340;48.534;-3.036;2022-10-16T10:50:28;18.60;73.50
75719;DHT22;64340;48.534;-3.036;2022-10-16T10:53:21;18.60;74.20
75719;DHT22;64340;48.534;-3.036;2022-10-16T10:55:59;18.60;75.00
75719;DHT22;64340;48.534;-3.036;2022-10-16T10:58:42;18.60;75.10
75719;DHT22;64340;48.534;-3.036;2022-10-16T11:04:01;18.70;74.90
75719;DHT22;64340;48.534;-3.036;2022-10-16T11:06:57;18.70;75.50
75719;DHT22;64340;48.534;-3.036;2022-10-16T11:11:58;18.80;75.30
75719;DHT22;64340;48.534;-3.036;2022-10-16T11:14:43;18.80;75.40
75719;DHT22;64340;48.534;-3.036;2022-10-16T11:17:23;18.90;74.80
75719;DHT22;64340;48.534;-3.036;2022-10-16T11:20:05;18.90;74.80
75719;DHT22;64340;48.534;-3.036;2022-10-16T11:22:42;18.80;74.60
75719;DHT22;64340;48.534;-3.036;2022-10-16T11:25:21;18.80;74.50
75719;DHT22;64340;48.534;-3.036;2022-10-16T11:30:28;18.80;74.30
75719;DHT22;64340;48.534;-3.036;2022-10-16T11:36:25;18.80;74.10
75719;DHT22;64340;48.534;-3.036;2022-10-16T11:41:44;18.70;73.90
75719;DHT22;64340;48.534;-3.036;2022-10-16T11:44:16;18.80;73.80
75719;DHT22;64340;48.534;-3.036;2022-10-16T11:46:53;18.80;73.70
75719;DHT22;64340;48.534;-3.036;2022-10-16T11:49:26;18.80;73.60
75719;DHT22;64340;48.534;-3.036;2022-10-16T11:52:22;18.70;73.60
75719;DHT22;64340;48.534;-3.036;2022-10-16T11:54:59;18.70;73.60
75719;DHT22;64340;48.534;-3.036;2022-10-16T11:57:33;18.70;73.50
75719;DHT22;64340;48.534;-3.036;2022-10-16T12:00:10;18.70;73.50
75719;DHT22;64340;48.534;-3.036;2022-10-16T12:08:17;18.70;73.40
75719;DHT22;64340;48.534;-3.036;2022-10-16T12:10:46;18.70;73.30
75719;DHT22;64340;48.534;-3.036;2022-10-16T12:13:35;18.70;73.30
75719;DHT22;64340;48.534;-3.036;2022-10-16T12:16:20;18.70;73.30
75719;DHT22;64340;48.534;-3.036;2022-10-16T12:18:47;18.70;73.50
75719;DHT22;64340;48.534;-3.036;2022-10-16T12:21:16;18.70;73.40
75719;DHT22;64340;48.534;-3.036;2022-10-16T12:23:54;18.70;73.30
75719;DHT22;64340;48.534;-3.036;2022-10-16T12:26:32;18.70;73.20
75719;DHT22;64340;48.534;-3.036;2022-10-16T12:29:39;18.70;73.20
75719;DHT22;64340;48.534;-3.036;2022-10-16T12:32:25;18.70;73.20
75719;DHT22;64340;48.534;-3.036;2022-10-16T12:34:52;18.70;73.20
75719;DHT22;64340;48.534;-3.036;2022-10-16T12:37:24;18.70;73.20
75719;DHT22;64340;48.534;-3.036;2022-10-16T12:39:53;18.70;73.10
75719;DHT22;64340;48.534;-3.036;2022-10-16T12:44:52;18.70;73.00
75719;DHT22;64340;48.534;-3.036;2022-10-16T12:47:24;18.70;73.00
75719;DHT22;64340;48.534;-3.036;2022-10-16T12:50:01;18.70;72.90
75719;DHT22;64340;48.534;-3.036;2022-10-16T12:52:37;18.70;72.90
75719;DHT22;64340;48.534;-3.036;2022-10-16T12:55:05;18.70;72.80
75719;DHT22;64340;48.534;-3.036;2022-10-16T13:00:44;18.70;72.70
75719;DHT22;64340;48.534;-3.036;2022-10-16T13:06:50;18.70;72.70
75719;DHT22;64340;48.534;-3.036;2022-10-16T13:22:32;18.70;72.60
75719;DHT22;64340;48.534;-3.036;2022-10-16T13:30:18;18.70;72.60
75719;DHT22;64340;48.534;-3.036;2022-10-16T13:32:52;18.70;72.60
75719;DHT22;64340;48.534;-3.036;2022-10-16T13:35:23;18.70;72.60
75719;DHT22;64340;48.534;-3.036;2022-10-16T13:37:50;18.70;72.60
75719;DHT22;64340;48.534;-3.036;2022-10-16T13:40:22;18.70;72.70
75719;DHT22;64340;48.534;-3.036;2022-10-16T13:42:49;18.70;72.70
75719;DHT22;64340;48.534;-3.036;2022-10-16T13:45:23;18.70;72.70
75719;DHT22;64340;48.534;-3.036;2022-10-16T13:48:02;18.70;72.80
75719;DHT22;64340;48.534;-3.036;2022-10-16T13:50:29;18.70;72.80
75719;DHT22;64340;48.534;-3.036;2022-10-16T13:53:05;18.70;72.80
75719;DHT22;64340;48.534;-3.036;2022-10-16T13:55:31;18.70;72.80
75719;DHT22;64340;48.534;-3.036;2022-10-16T13:58:14;18.70;72.80
75719;DHT22;64340;48.534;-3.036;2022-10-16T14:00:52;18.70;72.80
75719;DHT22;64340;48.534;-3.036;2022-10-16T14:03:20;18.70;72.90
75719;DHT22;64340;48.534;-3.036;2022-10-16T14:05:49;18.70;72.80
75719;DHT22;64340;48.534;-3.036;2022-10-16T14:08:16;18.70;72.80
75719;DHT22;64340;48.534;-3.036;2022-10-16T14:10:42;18.70;72.80
75719;DHT22;64340;48.534;-3.036;2022-10-16T14:13:12;18.70;72.90
75719;DHT22;64340;48.534;-3.036;2022-10-16T14:15:40;18.70;72.90
75719;DHT22;64340;48.534;-3.036;2022-10-16T14:18:18;18.70;72.90
75719;DHT22;64340;48.534;-3.036;2022-10-16T14:20:44;18.70;72.90
75719;DHT22;64340;48.534;-3.036;2022-10-16T14:25:51;18.70;73.10
75719;DHT22;64340;48.534;-3.036;2022-10-16T14:28:22;18.70;73.10
75719;DHT22;64340;48.534;-3.036;2022-10-16T14:30:54;18.70;73.10
75719;DHT22;64340;48.534;-3.036;2022-10-16T14:33:40;18.70;73.30
75719;DHT22;64340;48.534;-3.036;2022-10-16T14:36:13;18.70;73.20
75719;DHT22;64340;48.534;-3.036;2022-10-16T14:38:43;18.70;73.40
75719;DHT22;64340;48.534;-3.036;2022-10-16T14:41:09;18.80;73.20
75719;DHT22;64340;48.534;-3.036;2022-10-16T14:43:37;18.70;73.30
75719;DHT22;64340;48.534;-3.036;2022-10-16T14:46:12;18.80;73.30
75719;DHT22;64340;48.534;-3.036;2022-10-16T14:48:44;18.70;73.40
75719;DHT22;64340;48.534;-3.036;2022-10-16T14:51:17;18.80;73.20
75719;DHT22;64340;48.534;-3.036;2022-10-16T14:53:44;18.80;73.10
75719;DHT22;64340;48.534;-3.036;2022-10-16T14:56:19;18.80;73.10
75719;DHT22;64340;48.534;-3.036;2022-10-16T14:58:45;18.80;73.00
75719;DHT22;64340;48.534;-3.036;2022-10-16T15:01:11;18.80;73.00
75719;DHT22;64340;48.534;-3.036;2022-10-16T15:03:37;18.80;72.90
75719;DHT22;64340;48.534;-3.036;2022-10-16T15:06:04;18.80;72.90
75719;DHT22;64340;48.534;-3.036;2022-10-16T15:08:35;18.80;73.00
75719;DHT22;64340;48.534;-3.036;2022-10-16T15:11:01;18.80;72.90
75719;DHT22;64340;48.534;-3.036;2022-10-16T15:13:26;18.80;72.80
75719;DHT22;64340;48.534;-3.036;2022-10-16T15:15:53;18.80;72.90
75719;DHT22;64340;48.534;-3.036;2022-10-16T15:18:18;18.80;72.90
75719;DHT22;64340;48.534;-3.036;2022-10-16T15:20:49;18.80;73.00
75719;DHT22;64340;48.534;-3.036;2022-10-16T15:23:20;18.80;73.00
75719;DHT22;64340;48.534;-3.036;2022-10-16T15:25:54;18.80;73.00
75719;DHT22;64340;48.534;-3.036;2022-10-16T15:28:21;18.80;73.00
75719;DHT22;64340;48.534;-3.036;2022-10-16T15:30:49;18.80;73.00
75719;DHT22;64340;48.534;-3.036;2022-10-16T15:33:18;18.80;73.00
75719;DHT22;64340;48.534;-3.036;2022-10-16T15:35:50;18.80;73.10
75719;DHT22;64340;48.534;-3.036;2022-10-16T15:38:17;18.80;73.20
75719;DHT22;64340;48.534;-3.036;2022-10-16T15:40:43;18.80;73.20
75719;DHT22;64340;48.534;-3.036;2022-10-16T15:43:10;18.80;73.20
75719;DHT22;64340;48.534;-3.036;2022-10-16T15:45:37;18.80;73.20
75719;DHT22;64340;48.534;-3.036;2022-10-16T15:48:03;18.80;73.50
75719;DHT22;64340;48.534;-3.036;2022-10-16T15:50:32;18.80;73.70
75719;DHT22;64340;48.534;-3.036;2022-10-16T15:52:58;18.80;73.80
75719;DHT22;64340;48.534;-3.036;2022-10-16T15:55:24;18.80;73.90
75719;DHT22;64340;48.534;-3.036;2022-10-16T15:57:50;18.80;73.80
75719;DHT22;64340;48.534;-3.036;2022-10-16T16:00:19;18.80;73.70
75719;DHT22;64340;48.534;-3.036;2022-10-16T16:02:53;18.80;73.60
75719;DHT22;64340;48.534;-3.036;2022-10-16T16:05:21;18.80;73.50
75719;DHT22;64340;48.534;-3.036;2022-10-16T16:07:47;18.90;73.40
75719;DHT22;64340;48.534;-3.036;2022-10-16T16:10:13;18.80;73.40
75719;DHT22;64340;48.534;-3.036;2022-10-16T16:12:38;18.80;73.60
75719;DHT22;64340;48.534;-3.036;2022-10-16T16:15:06;18.80;73.90
75719;DHT22;64340;48.534;-3.036;2022-10-16T16:17:33;18.90;73.90
75719;DHT22;64340;48.534;-3.036;2022-10-16T16:19:59;18.90;74.00
75719;DHT22;64340;48.534;-3.036;2022-10-16T16:22:25;18.90;73.90
75719;DHT22;64340;48.534;-3.036;2022-10-16T16:24:51;18.90;73.70
75719;DHT22;64340;48.534;-3.036;2022-10-16T16:27:17;18.90;73.60
75719;DHT22;64340;48.534;-3.036;2022-10-16T16:29:45;18.90;73.50
75719;DHT22;64340;48.534;-3.036;2022-10-16T16:32:11;18.90;73.50
75719;DHT22;64340;48.534;-3.036;2022-10-16T16:34:37;18.90;73.40
75719;DHT22;64340;48.534;-3.036;2022-10-16T16:37:02;18.90;73.40
75719;DHT22;64340;48.534;-3.036;2022-10-16T16:39:28;18.90;73.50
75719;DHT22;64340;48.534;-3.036;2022-10-16T16:41:56;18.90;73.40
75719;DHT22;64340;48.534;-3.036;2022-10-16T16:44:24;18.90;73.30
75719;DHT22;64340;48.534;-3.036;2022-10-16T16:46:50;18.90;73.30
75719;DHT22;64340;48.534;-3.036;2022-10-16T16:49:16;18.90;73.30
75719;DHT22;64340;48.534;-3.036;2022-10-16T16:51:42;18.90;73.30
75719;DHT22;64340;48.534;-3.036;2022-10-16T16:54:09;18.90;73.30
75719;DHT22;64340;48.534;-3.036;2022-10-16T16:56:35;18.90;73.20
75719;DHT22;64340;48.534;-3.036;2022-10-16T16:59:01;18.90;73.20
75719;DHT22;64340;48.534;-3.036;2022-10-16T17:01:27;18.90;73.20